createdAt,value
2019-03-06T00:01:56.028Z,18.10
2019-03-06T00:04:25.559Z,18.16
2019-03-06T00:06:55.168Z,18.15
2019-03-06T00:09:24.705Z,18.12
2019-03-06T00:11:54.161Z,18.11
2019-03-06T00:14:23.661Z,18.10
2019-03-06T00:16:53.124Z,18.14
2019-03-06T00:19:22.679Z,18.19
2019-03-06T00:21:52.240Z,18.21
2019-03-06T00:24:21.737Z,18.21
2019-03-06T00:26:51.276Z,18.22
2019-03-06T00:29:21.129Z,18.21
2019-03-06T00:31:50.735Z,18.26
2019-03-06T00:34:20.310Z,18.25
2019-03-06T00:36:49.759Z,18.25
2019-03-06T00:39:19.410Z,18.24
2019-03-06T00:41:51.421Z,18.27
2019-03-06T00:44:20.870Z,18.30
2019-03-06T00:46:50.381Z,18.35
2019-03-06T00:49:19.933Z,18.46
2019-03-06T00:51:49.409Z,18.52
2019-03-06T00:54:19.044Z,18.52
2019-03-06T00:56:48.661Z,18.55
2019-03-06T00:59:18.107Z,18.56
2019-03-06T01:01:47.711Z,18.60
2019-03-06T01:04:17.434Z,18.57
2019-03-06T01:06:47.150Z,18.57
2019-03-06T01:09:16.726Z,18.51
2019-03-06T01:11:46.241Z,18.45
2019-03-06T01:14:15.778Z,18.37
2019-03-06T01:16:45.435Z,18.35
2019-03-06T01:19:14.985Z,18.29
2019-03-06T01:21:44.527Z,18.22
2019-03-06T01:24:13.994Z,18.16
2019-03-06T01:26:43.510Z,18.12
2019-03-06T01:29:13.094Z,18.12
2019-03-06T01:31:42.544Z,18.07
2019-03-06T01:34:22.790Z,18.11
2019-03-06T01:37:09.797Z,18.09
2019-03-06T01:40:04.062Z,18.06
2019-03-06T01:42:52.421Z,18.07
2019-03-06T01:45:22.051Z,18.08
2019-03-06T01:47:51.592Z,18.13
2019-03-06T01:50:21.151Z,18.14
2019-03-06T01:52:50.674Z,18.14
2019-03-06T01:55:20.192Z,18.13
2019-03-06T01:57:49.645Z,18.11
2019-03-06T02:00:19.845Z,18.19
2019-03-06T02:02:49.325Z,18.23
2019-03-06T02:05:19.196Z,18.19
2019-03-06T02:07:48.798Z,18.25
2019-03-06T02:10:18.807Z,18.26
2019-03-06T02:12:48.390Z,18.19
2019-03-06T02:15:18.381Z,18.12
2019-03-06T02:17:47.985Z,18.10
2019-03-06T02:20:17.876Z,18.07
2019-03-06T02:22:47.433Z,18.00
2019-03-06T02:25:17.445Z,17.96
2019-03-06T02:27:47.071Z,17.87
2019-03-06T02:30:19.173Z,17.85
2019-03-06T02:32:48.634Z,17.81
2019-03-06T02:35:18.197Z,17.79
2019-03-06T02:37:47.713Z,17.75
2019-03-06T02:40:17.314Z,17.75
2019-03-06T02:42:46.771Z,17.73
2019-03-06T02:45:17.026Z,17.74
2019-03-06T02:47:46.568Z,17.78
2019-03-06T02:50:16.134Z,17.75
2019-03-06T02:52:45.706Z,17.74
2019-03-06T02:55:15.792Z,17.73
2019-03-06T02:57:53.999Z,17.73
2019-03-06T03:00:54.479Z,17.73
2019-03-06T03:03:48.836Z,17.75
2019-03-06T03:06:23.691Z,17.81
2019-03-06T03:08:53.188Z,17.81
2019-03-06T03:11:22.745Z,17.80
2019-03-06T03:13:52.262Z,17.83
2019-03-06T03:16:21.790Z,17.84
2019-03-06T03:18:51.235Z,17.90
2019-03-06T03:21:20.782Z,17.86
2019-03-06T03:23:50.255Z,17.86
2019-03-06T03:26:19.742Z,17.78
2019-03-06T03:28:49.256Z,17.76
2019-03-06T03:31:18.780Z,17.71
2019-03-06T03:33:48.238Z,17.69
2019-03-06T03:36:17.752Z,17.63
2019-03-06T03:38:47.230Z,17.59
2019-03-06T03:41:16.725Z,17.55
2019-03-06T03:43:46.245Z,17.54
2019-03-06T03:46:15.730Z,17.53
2019-03-06T03:48:45.196Z,17.51
2019-03-06T03:51:14.723Z,17.48
2019-03-06T03:53:44.185Z,17.50
2019-03-06T03:56:13.719Z,17.48
2019-03-06T03:58:43.241Z,17.45
2019-03-06T04:01:12.717Z,17.48
2019-03-06T04:03:42.193Z,17.45
2019-03-06T04:06:11.819Z,17.42
2019-03-06T04:08:41.280Z,17.45
2019-03-06T04:11:10.789Z,17.41
2019-03-06T04:13:40.334Z,17.44
2019-03-06T04:16:09.815Z,17.47
2019-03-06T04:18:39.377Z,17.45
2019-03-06T04:21:08.985Z,17.45
2019-03-06T04:23:38.455Z,17.50
2019-03-06T04:26:08.065Z,17.52
2019-03-06T04:28:37.548Z,17.51
2019-03-06T04:31:07.006Z,17.52
2019-03-06T04:33:36.546Z,17.53
2019-03-06T04:36:06.012Z,17.51
2019-03-06T04:38:35.439Z,17.51
2019-03-06T04:41:04.998Z,17.47
2019-03-06T04:43:34.468Z,17.40
2019-03-06T04:46:03.942Z,17.35
2019-03-06T04:48:33.406Z,17.32
2019-03-06T04:51:02.882Z,17.26
2019-03-06T04:53:32.391Z,17.26
2019-03-06T04:56:01.866Z,17.24
2019-03-06T04:58:31.401Z,17.20
2019-03-06T05:01:00.944Z,17.17
2019-03-06T05:03:30.432Z,17.22
2019-03-06T05:05:59.867Z,17.18
2019-03-06T05:08:29.475Z,17.14
2019-03-06T05:10:58.935Z,17.12
2019-03-06T05:13:30.790Z,17.12
2019-03-06T05:16:00.246Z,17.12
2019-03-06T05:18:36.951Z,17.13
2019-03-06T05:21:06.442Z,17.14
2019-03-06T05:23:35.949Z,17.08
2019-03-06T05:26:05.473Z,17.10
2019-03-06T05:28:34.924Z,17.04
2019-03-06T05:31:04.370Z,17.05
2019-03-06T05:33:33.877Z,17.04
2019-03-06T05:36:40.659Z,17.06
2019-03-06T05:39:11.987Z,17.08
2019-03-06T05:41:41.604Z,17.08
2019-03-06T05:44:11.054Z,17.14
2019-03-06T05:46:40.623Z,17.09
2019-03-06T05:49:10.401Z,17.09
2019-03-06T05:51:39.835Z,17.08
2019-03-06T05:54:09.382Z,17.04
2019-03-06T05:56:38.839Z,17.00
2019-03-06T05:59:08.312Z,16.98
2019-03-06T06:01:37.937Z,16.96
2019-03-06T06:04:07.403Z,17.00
2019-03-06T06:06:36.850Z,17.10
2019-03-06T06:09:07.422Z,17.49
2019-03-06T06:11:36.870Z,17.99
2019-03-06T06:14:06.344Z,18.28
2019-03-06T06:16:35.879Z,18.20
2019-03-06T06:19:05.529Z,18.11
2019-03-06T06:21:53.598Z,17.98
2019-03-06T06:24:25.575Z,17.90
2019-03-06T06:26:55.022Z,17.82
2019-03-06T06:29:24.571Z,17.78
2019-03-06T06:31:54.051Z,17.63
2019-03-06T06:34:23.527Z,17.56
2019-03-06T06:36:53.061Z,17.54
2019-03-06T06:39:22.695Z,17.48
2019-03-06T06:41:52.162Z,17.39
2019-03-06T06:44:21.733Z,17.37
2019-03-06T06:46:51.230Z,17.32
2019-03-06T06:49:20.722Z,17.27
2019-03-06T06:52:18.662Z,17.27
2019-03-06T06:55:22.612Z,17.27
2019-03-06T06:58:41.855Z,17.59
2019-03-06T07:02:15.927Z,17.63
2019-03-06T07:05:32.349Z,17.60
2019-03-06T07:08:39.458Z,17.88
2019-03-06T07:11:18.808Z,18.21
2019-03-06T07:14:13.374Z,18.50
2019-03-06T07:16:58.780Z,18.49
2019-03-06T07:19:50.290Z,18.78
2019-03-06T07:22:51.062Z,19.17
2019-03-06T07:25:48.838Z,19.32
2019-03-06T07:28:49.509Z,19.42
2019-03-06T07:31:53.050Z,19.43
2019-03-06T07:34:44.053Z,19.43
2019-03-06T07:37:28.143Z,19.41
2019-03-06T07:39:54.206Z,19.29
2019-03-06T07:42:48.409Z,19.10
2019-03-06T07:46:05.780Z,18.93
2019-03-06T07:49:05.417Z,18.78
2019-03-06T07:51:40.919Z,18.61
2019-03-06T07:54:38.105Z,18.52
2019-03-06T07:57:39.039Z,18.48
2019-03-06T08:00:16.802Z,18.33
2019-03-06T08:03:25.841Z,18.29
2019-03-06T08:05:55.350Z,18.18
2019-03-06T08:08:24.830Z,18.04
2019-03-06T08:10:55.412Z,17.98
2019-03-06T08:13:47.260Z,17.94
2019-03-06T08:16:25.752Z,17.92
2019-03-06T08:19:12.947Z,17.86
2019-03-06T08:22:00.091Z,17.84
2019-03-06T08:24:36.024Z,17.82
2019-03-06T08:27:05.746Z,17.82
2019-03-06T08:29:35.188Z,17.74
2019-03-06T08:32:23.824Z,17.76
2019-03-06T08:34:53.345Z,17.78
2019-03-06T08:37:22.861Z,17.80
2019-03-06T08:39:52.474Z,18.41
2019-03-06T08:42:22.879Z,18.75
2019-03-06T08:44:52.470Z,19.02
2019-03-06T08:47:40.951Z,19.18
2019-03-06T08:50:25.254Z,19.27
2019-03-06T08:53:12.043Z,19.22
2019-03-06T08:56:06.485Z,19.15
2019-03-06T08:58:53.815Z,19.09
2019-03-06T09:01:45.424Z,18.93
2019-03-06T09:04:38.769Z,18.72
2019-03-06T09:07:36.437Z,18.57
2019-03-06T09:10:38.431Z,18.48
2019-03-06T09:13:25.238Z,18.41
2019-03-06T09:16:25.480Z,18.34
2019-03-06T09:19:22.682Z,18.27
2019-03-06T09:22:14.173Z,18.24
2019-03-06T09:24:59.431Z,18.14
2019-03-06T09:27:51.057Z,18.08
2019-03-06T09:30:37.795Z,17.98
2019-03-06T09:33:14.420Z,17.88
2019-03-06T09:36:11.597Z,17.80
2019-03-06T09:38:47.202Z,17.67
2019-03-06T09:41:35.671Z,17.67
2019-03-06T09:44:35.960Z,17.69
2019-03-06T09:47:17.771Z,17.57
2019-03-06T09:50:04.686Z,18.26
2019-03-06T09:52:57.314Z,18.23
2019-03-06T09:55:54.895Z,18.57
2019-03-06T09:58:46.318Z,18.97
2019-03-06T10:01:50.242Z,19.22
2019-03-06T10:04:47.598Z,19.46
2019-03-06T10:07:33.165Z,19.63
2019-03-06T10:10:30.812Z,19.65
2019-03-06T10:13:09.000Z,19.66
2019-03-06T10:15:44.657Z,19.78
2019-03-06T10:18:19.552Z,19.87
2019-03-06T10:20:49.029Z,19.88
2019-03-06T10:23:18.637Z,20.31
2019-03-06T10:25:48.249Z,20.17
2019-03-06T10:28:27.326Z,20.39
2019-03-06T10:30:48.977Z,20.13
2019-03-06T10:33:18.453Z,20.17
2019-03-06T10:35:47.951Z,19.94
2019-03-06T10:38:17.473Z,19.90
2019-03-06T10:40:47.128Z,19.70
2019-03-06T10:43:16.675Z,19.62
2019-03-06T10:45:46.197Z,19.56
2019-03-06T10:48:15.648Z,19.54
2019-03-06T10:50:45.136Z,19.34
2019-03-06T10:53:14.674Z,19.14
2019-03-06T10:55:44.245Z,19.03
2019-03-06T10:58:13.678Z,18.97
2019-03-06T11:00:53.620Z,18.87
2019-03-06T11:03:31.826Z,18.84
2019-03-06T11:06:01.333Z,18.81
2019-03-06T11:08:30.854Z,18.74
2019-03-06T11:11:00.317Z,18.70
2019-03-06T11:13:29.948Z,18.66
2019-03-06T11:15:59.641Z,18.64
2019-03-06T11:18:29.094Z,18.61
2019-03-06T11:20:58.745Z,18.57
2019-03-06T11:23:28.250Z,18.56
2019-03-06T11:25:57.766Z,18.53
2019-03-06T11:28:27.280Z,18.54
2019-03-06T11:30:57.538Z,18.47
2019-03-06T11:33:28.013Z,18.52
2019-03-06T11:35:58.732Z,18.53
2019-03-06T11:38:29.027Z,18.46
2019-03-06T11:40:58.943Z,18.40
2019-03-06T11:43:28.735Z,18.35
2019-03-06T11:45:58.325Z,18.30
2019-03-06T11:48:28.334Z,18.29
2019-03-06T11:50:57.998Z,18.25
2019-03-06T11:53:27.474Z,18.27
2019-03-06T11:55:57.052Z,18.32
2019-03-06T11:58:26.798Z,18.28
2019-03-06T12:00:56.523Z,18.25
2019-03-06T12:03:26.728Z,18.26
2019-03-06T12:05:57.236Z,18.25
2019-03-06T12:08:26.781Z,18.71
2019-03-06T12:10:56.259Z,19.19
2019-03-06T12:13:25.891Z,19.35
2019-03-06T12:15:55.496Z,19.45
2019-03-06T12:18:25.877Z,19.33
2019-03-06T12:20:55.823Z,19.14
2019-03-06T12:23:25.512Z,19.07
2019-03-06T12:25:55.082Z,19.02
2019-03-06T12:28:24.841Z,19.33
2019-03-06T12:30:54.516Z,19.49
2019-03-06T12:33:26.192Z,19.45
2019-03-06T12:35:55.856Z,19.30
2019-03-06T12:38:25.620Z,19.25
2019-03-06T12:40:55.110Z,19.14
2019-03-06T12:43:24.903Z,19.10
2019-03-06T12:46:24.847Z,19.02
2019-03-06T12:49:04.215Z,19.00
2019-03-06T12:51:34.989Z,18.96
2019-03-06T12:54:04.923Z,18.94
2019-03-06T12:56:34.576Z,18.87
2019-03-06T12:59:04.791Z,19.03
2019-03-06T13:01:34.243Z,19.53
2019-03-06T13:04:04.231Z,19.72
2019-03-06T13:06:33.734Z,19.65
2019-03-06T13:09:06.449Z,19.58
2019-03-06T13:11:35.897Z,19.50
2019-03-06T13:14:05.461Z,19.46
2019-03-06T13:16:34.922Z,19.40
2019-03-06T13:19:04.567Z,19.23
2019-03-06T13:21:34.011Z,19.25
2019-03-06T13:24:03.601Z,19.23
2019-03-06T13:26:33.265Z,19.19
2019-03-06T13:29:02.718Z,19.16
2019-03-06T13:31:32.264Z,19.14
2019-03-06T13:34:19.875Z,19.11
2019-03-06T13:36:49.410Z,19.10
2019-03-06T13:39:18.867Z,19.10
2019-03-06T13:41:48.356Z,19.02
2019-03-06T13:44:19.077Z,19.54
2019-03-06T13:46:51.252Z,19.97
2019-03-06T13:49:20.726Z,20.09
2019-03-06T13:51:50.305Z,20.11
2019-03-06T13:54:19.849Z,20.07
2019-03-06T13:56:51.733Z,20.03
2019-03-06T13:59:20.884Z,19.98
2019-03-06T14:01:50.484Z,19.92
2019-03-06T14:04:19.938Z,19.84
2019-03-06T14:06:49.438Z,19.77
2019-03-06T14:09:19.026Z,19.70
2019-03-06T14:11:48.702Z,19.69
2019-03-06T14:14:18.290Z,19.67
2019-03-06T14:16:47.958Z,19.75
2019-03-06T14:19:17.436Z,19.82
2019-03-06T14:21:47.283Z,20.01
2019-03-06T14:24:16.878Z,20.12
2019-03-06T14:26:46.717Z,20.20
2019-03-06T14:29:16.664Z,20.32
2019-03-06T14:31:46.196Z,20.43
2019-03-06T14:34:15.709Z,20.48
2019-03-06T14:36:46.498Z,20.49
2019-03-06T14:39:30.720Z,20.66
2019-03-06T14:42:00.989Z,20.55
2019-03-06T14:44:30.622Z,20.50
2019-03-06T14:47:00.151Z,20.42
2019-03-06T14:49:30.500Z,20.32
2019-03-06T14:52:07.136Z,20.24
2019-03-06T14:54:31.997Z,20.12
2019-03-06T14:57:01.489Z,20.07
2019-03-06T14:59:31.024Z,20.01
2019-03-06T15:02:00.510Z,19.91
2019-03-06T15:04:30.140Z,19.95
2019-03-06T15:07:00.126Z,20.09
2019-03-06T15:09:29.938Z,20.18
2019-03-06T15:11:59.423Z,20.10
2019-03-06T15:14:35.706Z,20.03
2019-03-06T15:17:00.235Z,19.91
2019-03-06T15:19:29.894Z,20.10
2019-03-06T15:21:59.822Z,20.25
2019-03-06T15:24:29.293Z,20.20
2019-03-06T15:26:59.083Z,20.05
2019-03-06T15:29:28.596Z,19.97
2019-03-06T15:31:58.329Z,19.94
2019-03-06T15:34:27.836Z,19.89
2019-03-06T15:36:57.406Z,19.84
2019-03-06T15:39:42.743Z,19.81
2019-03-06T15:42:11.846Z,19.77
2019-03-06T15:44:41.499Z,19.78
2019-03-06T15:47:11.427Z,19.73
2019-03-06T15:49:40.896Z,19.70
2019-03-06T15:52:12.364Z,19.67
2019-03-06T15:54:41.922Z,19.66
2019-03-06T15:57:11.647Z,19.65
2019-03-06T15:59:41.685Z,19.60
2019-03-06T16:02:11.612Z,19.58
2019-03-06T16:04:41.277Z,19.56
2019-03-06T16:07:10.789Z,19.80
2019-03-06T16:09:40.698Z,20.00
2019-03-06T16:12:12.215Z,20.21
2019-03-06T16:14:41.671Z,20.29
2019-03-06T16:17:11.225Z,20.35
2019-03-06T16:19:40.786Z,20.39
2019-03-06T16:22:10.717Z,20.38
2019-03-06T16:24:40.288Z,20.38
2019-03-06T16:27:09.846Z,20.39
2019-03-06T16:29:39.436Z,20.38
2019-03-06T16:32:09.027Z,20.54
2019-03-06T16:34:38.622Z,20.76
2019-03-06T16:37:08.422Z,20.79
2019-03-06T16:39:37.930Z,20.80
2019-03-06T16:42:07.718Z,20.84
2019-03-06T16:44:37.352Z,20.86
2019-03-06T16:47:07.174Z,20.92
2019-03-06T16:49:36.728Z,20.92
2019-03-06T16:52:06.259Z,20.88
2019-03-06T16:54:35.855Z,20.89
2019-03-06T16:57:05.544Z,20.95
2019-03-06T16:59:35.016Z,20.92
2019-03-06T17:02:05.361Z,20.81
2019-03-06T17:04:35.094Z,20.73
2019-03-06T17:07:04.929Z,20.71
2019-03-06T17:09:34.670Z,20.68
2019-03-06T17:12:04.914Z,20.73
2019-03-06T17:14:34.610Z,20.76
2019-03-06T17:17:04.445Z,20.70
2019-03-06T17:19:34.999Z,20.67
2019-03-06T17:22:04.658Z,20.63
2019-03-06T17:24:34.146Z,20.58
2019-03-06T17:27:03.765Z,20.56
2019-03-06T17:29:33.283Z,20.55
2019-03-06T17:32:02.828Z,20.74
2019-03-06T17:34:32.382Z,20.88
2019-03-06T17:37:03.172Z,20.90
2019-03-06T17:39:32.706Z,20.83
2019-03-06T17:42:02.300Z,20.74
2019-03-06T17:44:31.855Z,20.65
2019-03-06T17:47:01.455Z,20.56
2019-03-06T17:49:31.073Z,20.51
2019-03-06T17:52:00.667Z,20.45
2019-03-06T17:54:30.799Z,20.42
2019-03-06T17:57:00.471Z,20.37
2019-03-06T17:59:30.336Z,20.64
2019-03-06T18:02:00.006Z,20.91
2019-03-06T18:04:30.721Z,21.15
2019-03-06T18:07:00.262Z,21.34
2019-03-06T18:09:29.966Z,21.46
2019-03-06T18:11:59.481Z,21.52
2019-03-06T18:14:29.169Z,21.49
2019-03-06T18:16:58.670Z,21.43
2019-03-06T18:19:28.205Z,21.50
2019-03-06T18:21:58.685Z,21.56
2019-03-06T18:24:29.490Z,21.47
2019-03-06T18:26:59.463Z,21.34
2019-03-06T18:29:29.136Z,21.23
2019-03-06T18:31:58.712Z,21.13
2019-03-06T18:34:28.823Z,21.09
2019-03-06T18:36:58.493Z,21.33
2019-03-06T18:39:28.825Z,21.69
2019-03-06T18:41:58.666Z,21.74
2019-03-06T18:44:28.423Z,21.86
2019-03-06T18:46:57.921Z,21.89
2019-03-06T18:49:27.499Z,21.80
2019-03-06T18:51:57.161Z,21.81
2019-03-06T18:54:28.024Z,21.88
2019-03-06T18:56:57.962Z,21.99
2019-03-06T18:59:27.579Z,21.97
2019-03-06T19:01:57.572Z,21.98
2019-03-06T19:04:27.210Z,21.98
2019-03-06T19:06:56.855Z,22.02
2019-03-06T19:09:26.926Z,22.06
2019-03-06T19:11:56.510Z,22.11
2019-03-06T19:14:26.123Z,22.07
2019-03-06T19:16:55.737Z,22.04
2019-03-06T19:19:25.329Z,21.92
2019-03-06T19:21:54.951Z,21.80
2019-03-06T19:24:24.696Z,21.72
2019-03-06T19:26:54.341Z,21.65
2019-03-06T19:29:23.992Z,21.56
2019-03-06T19:31:53.534Z,21.52
2019-03-06T19:34:23.174Z,21.45
2019-03-06T19:36:52.788Z,21.39
2019-03-06T19:39:22.493Z,21.30
2019-03-06T19:41:52.077Z,21.26
2019-03-06T19:44:21.687Z,21.26
2019-03-06T19:46:51.304Z,21.23
2019-03-06T19:49:20.867Z,21.17
2019-03-06T19:51:51.662Z,21.10
2019-03-06T19:54:24.866Z,21.06
2019-03-06T19:56:55.994Z,21.04
2019-03-06T19:59:25.618Z,21.01
2019-03-06T20:01:55.283Z,20.97
2019-03-06T20:04:25.150Z,20.95
2019-03-06T20:06:54.927Z,20.93
2019-03-06T20:09:29.585Z,20.92
2019-03-06T20:12:09.319Z,20.84
2019-03-06T20:14:38.952Z,20.81
2019-03-06T20:17:08.731Z,20.80
2019-03-06T20:19:38.650Z,20.79
2019-03-06T20:22:08.285Z,20.75
2019-03-06T20:24:37.798Z,20.71
2019-03-06T20:27:07.389Z,20.67
2019-03-06T20:29:37.254Z,20.62
2019-03-06T20:32:06.837Z,20.59
2019-03-06T20:34:36.517Z,20.58
2019-03-06T20:37:11.799Z,20.55
2019-03-06T20:39:41.486Z,20.53
2019-03-06T20:42:11.161Z,20.50
2019-03-06T20:44:41.268Z,20.53
2019-03-06T20:47:11.288Z,20.51
2019-03-06T20:49:44.124Z,20.50
2019-03-06T20:52:13.756Z,20.47
2019-03-06T20:54:43.435Z,20.43
2019-03-06T20:57:13.047Z,20.43
2019-03-06T20:59:43.379Z,20.44
2019-03-06T21:02:13.290Z,20.45
2019-03-06T21:04:43.391Z,20.45
2019-03-06T21:07:13.204Z,20.45
2019-03-06T21:09:42.801Z,20.79
2019-03-06T21:12:12.460Z,21.37
2019-03-06T21:14:42.175Z,22.13
2019-03-06T21:17:23.204Z,22.71
2019-03-06T21:19:52.830Z,22.92
2019-03-06T21:22:22.574Z,23.28
2019-03-06T21:25:01.711Z,23.56
2019-03-06T21:27:53.200Z,23.85
2019-03-06T21:30:35.675Z,24.15
2019-03-06T21:33:05.934Z,24.45
2019-03-06T21:38:49.042Z,24.72
2019-03-06T21:41:18.756Z,24.80
2019-03-06T21:43:48.328Z,25.04
2019-03-06T21:46:52.525Z,25.34
2019-03-06T21:49:22.523Z,25.37
2019-03-06T21:51:59.613Z,25.33
2019-03-06T21:54:29.360Z,25.46
2019-03-06T21:57:23.409Z,25.79
2019-03-06T21:59:48.907Z,25.98
2019-03-06T22:02:31.998Z,26.08
2019-03-06T22:05:01.970Z,26.21
2019-03-06T22:07:31.553Z,26.28
2019-03-06T22:10:01.774Z,26.38
2019-03-06T22:12:31.541Z,26.56
2019-03-06T22:15:05.694Z,26.68
2019-03-06T22:17:34.971Z,26.72
2019-03-06T22:20:05.086Z,26.81
2019-03-06T22:22:34.807Z,26.89
2019-03-06T22:25:05.072Z,26.91
2019-03-06T22:27:34.826Z,26.92
2019-03-06T22:30:04.890Z,26.92
2019-03-06T22:32:34.504Z,27.00
2019-03-06T22:35:04.349Z,26.97
2019-03-06T22:37:33.957Z,27.04
2019-03-06T22:40:03.684Z,27.04
2019-03-06T22:42:33.960Z,27.23
2019-03-06T22:45:03.740Z,27.53
2019-03-06T22:47:33.312Z,27.74
2019-03-06T22:50:02.800Z,27.83
2019-03-06T22:52:32.313Z,27.85
2019-03-06T22:55:02.161Z,27.92
2019-03-06T22:57:31.693Z,27.97
2019-03-06T23:00:01.181Z,28.02
2019-03-06T23:02:31.314Z,28.04
2019-03-06T23:05:00.792Z,28.01
2019-03-06T23:07:30.350Z,28.01
2019-03-06T23:10:00.252Z,28.00
2019-03-06T23:12:30.085Z,28.09
2019-03-06T23:14:59.616Z,28.37
2019-03-06T23:17:29.774Z,28.49
2019-03-06T23:19:59.201Z,28.56
2019-03-06T23:22:28.812Z,28.55
2019-03-06T23:24:58.547Z,28.56
2019-03-06T23:27:28.936Z,28.52
2019-03-06T23:29:58.508Z,28.39
2019-03-06T23:32:28.043Z,28.42
2019-03-06T23:34:57.508Z,28.48
2019-03-06T23:37:27.091Z,28.50
2019-03-06T23:39:56.558Z,28.59
2019-03-06T23:42:26.005Z,28.53
2019-03-06T23:44:55.554Z,28.38
2019-03-06T23:47:26.147Z,28.23
2019-03-06T23:49:55.594Z,28.12
2019-03-06T23:52:29.921Z,28.01
2019-03-06T23:54:59.393Z,27.94
2019-03-06T23:57:29.048Z,27.86
2019-03-06T23:59:58.539Z,27.74
